sensor_id;sensor_type;location;lat;lon;timestamp;pressure;altitude;pressure_sealevel;temperature;humidity
27304;BME280;14791;52.392;13.092;2023-03-25T00:01:13;99890.03;;;14.93;46.26
27304;BME280;14791;52.392;13.092;2023-03-25T00:03:44;99886.93;;;14.88;46.38
27304;BME280;14791;52.392;13.092;2023-03-25T00:06:17;99884.16;;;14.84;46.49
27304;BME280;14791;52.392;13.092;2023-03-25T00:08:46;99886.09;;;14.78;46.58
27304;BME280;14791;52.392;13.092;2023-03-25T00:11:15;99882.33;;;14.75;46.68
27304;BME280;14791;52.392;13.092;2023-03-25T00:13:44;99870.52;;;14.72;46.78
27304;BME280;14791;52.392;13.092;2023-03-25T00:16:15;99878.25;;;14.71;46.85
27304;BME280;14791;52.392;13.092;2023-03-25T00:18:45;99869.81;;;14.70;46.85
27304;BME280;14791;52.392;13.092;2023-03-25T00:21:14;99874.01;;;14.68;46.88
27304;BME280;14791;52.392;13.092;2023-03-25T00:23:45;99871.11;;;14.65;46.92
27304;BME280;14791;52.392;13.092;2023-03-25T00:26:14;99870.91;;;14.63;46.96
27304;BME280;14791;52.392;13.092;2023-03-25T00:28:43;99872.37;;;14.61;47.01
27304;BME280;14791;52.392;13.092;2023-03-25T00:31:13;99873.01;;;14.59;47.06
27304;BME280;14791;52.392;13.092;2023-03-25T00:33:42;99877.54;;;14.59;47.08
27304;BME280;14791;52.392;13.092;2023-03-25T00:36:12;99880.36;;;14.57;47.13
27304;BME280;14791;52.392;13.092;2023-03-25T00:38:41;99881.86;;;14.56;47.19
27304;BME280;14791;52.392;13.092;2023-03-25T00:41:18;99879.64;;;14.55;47.21
27304;BME280;14791;52.392;13.092;2023-03-25T00:43:53;99886.96;;;14.53;47.23
27304;BME280;14791;52.392;13.092;2023-03-25T00:46:24;99886.53;;;14.48;47.28
27304;BME280;14791;52.392;13.092;2023-03-25T00:48:55;99890.86;;;14.45;47.32
27304;BME280;14791;52.392;13.092;2023-03-25T00:51:26;99892.83;;;14.43;47.39
27304;BME280;14791;52.392;13.092;2023-03-25T00:53:56;99891.77;;;14.40;47.44
27304;BME280;14791;52.392;13.092;2023-03-25T00:56:29;99898.11;;;14.39;47.47
27304;BME280;14791;52.392;13.092;2023-03-25T00:58:58;99897.44;;;14.37;47.51
27304;BME280;14791;52.392;13.092;2023-03-25T01:01:28;99896.72;;;14.35;47.57
27304;BME280;14791;52.392;13.092;2023-03-25T01:03:58;99901.37;;;14.33;47.61
27304;BME280;14791;52.392;13.092;2023-03-25T01:06:35;99897.63;;;14.30;47.65
27304;BME280;14791;52.392;13.092;2023-03-25T01:09:06;99896.64;;;14.31;47.62
27304;BME280;14791;52.392;13.092;2023-03-25T01:11:37;99896.55;;;14.26;47.67
27304;BME280;14791;52.392;13.092;2023-03-25T01:14:09;99891.59;;;14.22;47.76
27304;BME280;14791;52.392;13.092;2023-03-25T01:16:38;99891.25;;;14.21;47.80
27304;BME280;14791;52.392;13.092;2023-03-25T01:19:08;99878.95;;;14.18;47.85
27304;BME280;14791;52.392;13.092;2023-03-25T01:21:37;99876.39;;;14.17;47.87
27304;BME280;14791;52.392;13.092;2023-03-25T01:24:10;99875.20;;;14.15;47.91
27304;BME280;14791;52.392;13.092;2023-03-25T01:26:40;99875.83;;;14.13;47.96
27304;BME280;14791;52.392;13.092;2023-03-25T01:29:11;99873.77;;;14.11;47.99
27304;BME280;14791;52.392;13.092;2023-03-25T01:31:40;99862.03;;;14.12;48.06
27304;BME280;14791;52.392;13.092;2023-03-25T01:34:11;99854.48;;;14.12;48.08
27304;BME280;14791;52.392;13.092;2023-03-25T01:36:40;99856.66;;;14.12;48.08
27304;BME280;14791;52.392;13.092;2023-03-25T01:39:13;99853.01;;;14.13;48.12
27304;BME280;14791;52.392;13.092;2023-03-25T01:41:47;99855.06;;;14.15;48.11
27304;BME280;14791;52.392;13.092;2023-03-25T01:46:52;99862.70;;;14.20;48.09
27304;BME280;14791;52.392;13.092;2023-03-25T01:49:32;99856.84;;;14.20;48.08
27304;BME280;14791;52.392;13.092;2023-03-25T01:51:58;99851.17;;;14.23;48.07
27304;BME280;14791;52.392;13.092;2023-03-25T01:54:28;99851.52;;;14.24;48.08
27304;BME280;14791;52.392;13.092;2023-03-25T01:56:58;99851.52;;;14.24;48.13
27304;BME280;14791;52.392;13.092;2023-03-25T01:59:28;99844.34;;;14.25;48.24
27304;BME280;14791;52.392;13.092;2023-03-25T02:02:00;99849.08;;;14.27;48.32
27304;BME280;14791;52.392;13.092;2023-03-25T02:05:01;99842.91;;;14.31;48.37
27304;BME280;14791;52.392;13.092;2023-03-25T02:07:13;99843.63;;;14.33;48.45
27304;BME280;14791;52.392;13.092;2023-03-25T02:09:43;99833.22;;;14.34;48.53
27304;BME280;14791;52.392;13.092;2023-03-25T02:12:12;99821.22;;;14.38;48.55
27304;BME280;14791;52.392;13.092;2023-03-25T02:14:41;99823.82;;;14.43;48.52
27304;BME280;14791;52.392;13.092;2023-03-25T02:17:33;99819.23;;;14.50;48.48
27304;BME280;14791;52.392;13.092;2023-03-25T02:28:38;99813.57;;;14.53;48.49
27304;BME280;14791;52.392;13.092;2023-03-25T02:37:08;99796.27;;;14.51;48.39
27304;BME280;14791;52.392;13.092;2023-03-25T02:39:52;99802.32;;;14.53;48.36
27304;BME280;14791;52.392;13.092;2023-03-25T02:42:39;99798.80;;;14.53;48.38
27304;BME280;14791;52.392;13.092;2023-03-25T02:45:11;99795.60;;;14.53;48.37
27304;BME280;14791;52.392;13.092;2023-03-25T02:47:46;99792.58;;;14.52;48.35
27304;BME280;14791;52.392;13.092;2023-03-25T02:50:28;99795.00;;;14.55;48.34
27304;BME280;14791;52.392;13.092;2023-03-25T02:52:59;99784.97;;;14.57;48.33
27304;BME280;14791;52.392;13.092;2023-03-25T02:55:30;99791.68;;;14.57;48.38
27304;BME280;14791;52.392;13.092;2023-03-25T02:58:03;99788.70;;;14.60;48.43
27304;BME280;14791;52.392;13.092;2023-03-25T03:00:33;99792.80;;;14.64;48.44
27304;BME280;14791;52.392;13.092;2023-03-25T03:03:06;99800.23;;;14.66;48.50
27304;BME280;14791;52.392;13.092;2023-03-25T03:05:37;99791.53;;;14.68;48.51
27304;BME280;14791;52.392;13.092;2023-03-25T03:08:16;99790.53;;;14.70;48.57
27304;BME280;14791;52.392;13.092;2023-03-25T03:16:25;99786.86;;;14.51;49.04
27304;BME280;14791;52.392;13.092;2023-03-25T03:19:14;99803.84;;;14.42;49.36
27304;BME280;14791;52.392;13.092;2023-03-25T03:21:48;99804.39;;;14.26;49.64
27304;BME280;14791;52.392;13.092;2023-03-25T03:24:28;99804.93;;;14.10;49.93
27304;BME280;14791;52.392;13.092;2023-03-25T03:27:21;99799.55;;;14.00;50.21
27304;BME280;14791;52.392;13.092;2023-03-25T03:29:45;99801.38;;;13.90;50.41
27304;BME280;14791;52.392;13.092;2023-03-25T03:32:36;99802.83;;;13.79;50.82
27304;BME280;14791;52.392;13.092;2023-03-25T03:35:16;99798.88;;;13.73;51.10
27304;BME280;14791;52.392;13.092;2023-03-25T03:37:46;99794.08;;;13.67;51.28
27304;BME280;14791;52.392;13.092;2023-03-25T03:40:17;99798.01;;;13.63;51.42
27304;BME280;14791;52.392;13.092;2023-03-25T03:42:55;99796.08;;;13.59;51.51
27304;BME280;14791;52.392;13.092;2023-03-25T03:47:59;99799.17;;;13.55;51.77
27304;BME280;14791;52.392;13.092;2023-03-25T03:50:31;99787.75;;;13.53;51.93
27304;BME280;14791;52.392;13.092;2023-03-25T03:53:07;99795.42;;;13.52;52.06
27304;BME280;14791;52.392;13.092;2023-03-25T03:55:40;99779.33;;;13.52;52.13
27304;BME280;14791;52.392;13.092;2023-03-25T03:58:13;99779.95;;;13.50;52.15
27304;BME280;14791;52.392;13.092;2023-03-25T04:00:47;99775.09;;;13.49;52.24
27304;BME280;14791;52.392;13.092;2023-03-25T04:03:21;99782.64;;;13.50;52.36
27304;BME280;14791;52.392;13.092;2023-03-25T04:05:53;99781.30;;;13.50;52.38
27304;BME280;14791;52.392;13.092;2023-03-25T04:08:31;99780.33;;;13.51;52.39
27304;BME280;14791;52.392;13.092;2023-03-25T04:11:06;99785.06;;;13.53;52.43
27304;BME280;14791;52.392;13.092;2023-03-25T04:13:40;99785.19;;;13.51;52.45
27304;BME280;14791;52.392;13.092;2023-03-25T04:16:08;99785.53;;;13.52;52.43
27304;BME280;14791;52.392;13.092;2023-03-25T04:18:37;99789.44;;;13.54;52.36
27304;BME280;14791;52.392;13.092;2023-03-25T04:21:07;99786.63;;;13.55;52.23
27304;BME280;14791;52.392;13.092;2023-03-25T04:23:36;99783.08;;;13.55;52.17
27304;BME280;14791;52.392;13.092;2023-03-25T04:26:07;99782.11;;;13.56;52.09
27304;BME280;14791;52.392;13.092;2023-03-25T04:28:36;99788.44;;;13.55;52.05
27304;BME280;14791;52.392;13.092;2023-03-25T04:31:14;99787.47;;;13.56;52.02
27304;BME280;14791;52.392;13.092;2023-03-25T04:33:44;99786.97;;;13.56;52.00
27304;BME280;14791;52.392;13.092;2023-03-25T04:36:15;99785.41;;;13.54;51.96
27304;BME280;14791;52.392;13.092;2023-03-25T04:38:44;99790.91;;;13.52;52.06
27304;BME280;14791;52.392;13.092;2023-03-25T04:41:13;99787.75;;;13.53;52.10
27304;BME280;14791;52.392;13.092;2023-03-25T04:43:42;99787.09;;;13.55;52.09
27304;BME280;14791;52.392;13.092;2023-03-25T04:46:13;99789.78;;;13.55;52.03
27304;BME280;14791;52.392;13.092;2023-03-25T04:48:43;99787.81;;;13.57;51.97
27304;BME280;14791;52.392;13.092;2023-03-25T04:51:13;99786.47;;;13.57;51.95
27304;BME280;14791;52.392;13.092;2023-03-25T04:53:42;99789.03;;;13.58;51.89
27304;BME280;14791;52.392;13.092;2023-03-25T04:56:15;99792.21;;;13.58;51.84
27304;BME280;14791;52.392;13.092;2023-03-25T04:58:44;99787.56;;;13.60;51.78
27304;BME280;14791;52.392;13.092;2023-03-25T05:01:24;99791.59;;;13.60;51.72
27304;BME280;14791;52.392;13.092;2023-03-25T05:04:01;99796.95;;;13.60;51.73
27304;BME280;14791;52.392;13.092;2023-03-25T05:06:35;99796.14;;;13.54;51.74
27304;BME280;14791;52.392;13.092;2023-03-25T05:09:09;99789.09;;;13.53;51.75
27304;BME280;14791;52.392;13.092;2023-03-25T05:11:39;99789.56;;;13.52;51.78
27304;BME280;14791;52.392;13.092;2023-03-25T05:14:10;99788.37;;;13.51;51.79
27304;BME280;14791;52.392;13.092;2023-03-25T05:16:39;99774.34;;;13.53;51.83
27304;BME280;14791;52.392;13.092;2023-03-25T05:19:08;99782.39;;;13.53;51.86
27304;BME280;14791;52.392;13.092;2023-03-25T05:21:39;99776.36;;;13.55;51.85
27304;BME280;14791;52.392;13.092;2023-03-25T05:24:10;99785.50;;;13.58;51.83
27304;BME280;14791;52.392;13.092;2023-03-25T05:26:41;99786.22;;;13.60;51.87
27304;BME280;14791;52.392;13.092;2023-03-25T05:29:12;99793.61;;;13.62;51.89
27304;BME280;14791;52.392;13.092;2023-03-25T05:31:43;99789.67;;;13.66;51.88
27304;BME280;14791;52.392;13.092;2023-03-25T05:34:13;99791.61;;;13.70;51.86
27304;BME280;14791;52.392;13.092;2023-03-25T05:36:43;99808.39;;;13.72;51.82
27304;BME280;14791;52.392;13.092;2023-03-25T05:39:12;99804.96;;;13.75;51.79
27304;BME280;14791;52.392;13.092;2023-03-25T05:41:42;99805.17;;;13.78;51.83
27304;BME280;14791;52.392;13.092;2023-03-25T05:44:12;99812.31;;;13.83;51.73
27304;BME280;14791;52.392;13.092;2023-03-25T05:46:41;99812.41;;;13.87;51.64
27304;BME280;14791;52.392;13.092;2023-03-25T05:49:10;99812.95;;;13.91;51.60
27304;BME280;14791;52.392;13.092;2023-03-25T05:51:39;99813.05;;;13.95;51.62
27304;BME280;14791;52.392;13.092;2023-03-25T05:54:08;99821.53;;;14.00;51.78
27304;BME280;14791;52.392;13.092;2023-03-25T05:56:39;99815.88;;;14.03;51.74
27304;BME280;14791;52.392;13.092;2023-03-25T05:59:09;99818.56;;;14.03;51.60
27304;BME280;14791;52.392;13.092;2023-03-25T06:01:38;99820.90;;;14.02;51.58
27304;BME280;14791;52.392;13.092;2023-03-25T06:04:08;99826.27;;;14.02;51.63
27304;BME280;14791;52.392;13.092;2023-03-25T06:06:39;99825.05;;;14.00;51.62
27304;BME280;14791;52.392;13.092;2023-03-25T06:09:08;99828.95;;;14.02;51.60
27304;BME280;14791;52.392;13.092;2023-03-25T06:11:38;99828.11;;;14.01;51.63
27304;BME280;14791;52.392;13.092;2023-03-25T06:14:07;99834.33;;;14.02;51.68
27304;BME280;14791;52.392;13.092;2023-03-25T06:16:36;99837.01;;;14.02;51.70
27304;BME280;14791;52.392;13.092;2023-03-25T06:19:05;99836.01;;;14.03;51.70
27304;BME280;14791;52.392;13.092;2023-03-25T06:21:36;99831.73;;;14.06;51.74
27304;BME280;14791;52.392;13.092;2023-03-25T06:24:05;99832.28;;;14.10;51.77
27304;BME280;14791;52.392;13.092;2023-03-25T06:26:34;99837.45;;;14.17;51.81
27304;BME280;14791;52.392;13.092;2023-03-25T06:29:03;99838.03;;;14.20;51.80
27304;BME280;14791;52.392;13.092;2023-03-25T06:31:32;99841.48;;;14.26;51.75
27304;BME280;14791;52.392;13.092;2023-03-25T06:34:01;99836.20;;;14.31;51.70
27304;BME280;14791;52.392;13.092;2023-03-25T06:36:30;99828.43;;;14.37;51.60
27304;BME280;14791;52.392;13.092;2023-03-25T06:39:01;99825.33;;;14.42;51.45
27304;BME280;14791;52.392;13.092;2023-03-25T06:41:32;99828.06;;;14.46;51.28
27304;BME280;14791;52.392;13.092;2023-03-25T06:44:04;99827.80;;;14.49;51.12
27304;BME280;14791;52.392;13.092;2023-03-25T06:46:51;99823.06;;;14.47;51.10
27304;BME280;14791;52.392;13.092;2023-03-25T06:49:25;99832.25;;;14.44;51.07
27304;BME280;14791;52.392;13.092;2023-03-25T06:51:55;99833.44;;;14.46;50.99
27304;BME280;14791;52.392;13.092;2023-03-25T06:54:24;99826.03;;;14.44;50.96
27304;BME280;14791;52.392;13.092;2023-03-25T06:56:53;99828.73;;;14.44;51.00
27304;BME280;14791;52.392;13.092;2023-03-25T06:59:22;99825.75;;;14.47;51.00
27304;BME280;14791;52.392;13.092;2023-03-25T07:01:51;99829.48;;;14.50;50.98
27304;BME280;14791;52.392;13.092;2023-03-25T07:04:20;99840.09;;;14.52;50.98
27304;BME280;14791;52.392;13.092;2023-03-25T07:06:49;99823.22;;;14.55;50.96
27304;BME280;14791;52.392;13.092;2023-03-25T07:09:18;99830.64;;;14.57;50.95
27304;BME280;14791;52.392;13.092;2023-03-25T07:11:48;99834.12;;;14.63;50.92
27304;BME280;14791;52.392;13.092;2023-03-25T07:14:17;99832.34;;;14.68;50.79
27304;BME280;14791;52.392;13.092;2023-03-25T07:16:45;99836.30;;;14.74;50.71
27304;BME280;14791;52.392;13.092;2023-03-25T07:19:14;99831.41;;;14.83;50.55
27304;BME280;14791;52.392;13.092;2023-03-25T07:21:43;99836.19;;;14.89;50.46
27304;BME280;14791;52.392;13.092;2023-03-25T07:24:12;99841.55;;;14.99;50.36
27304;BME280;14791;52.392;13.092;2023-03-25T07:26:41;99824.08;;;15.08;50.24
27304;BME280;14791;52.392;13.092;2023-03-25T07:29:11;99846.03;;;15.18;50.03
27304;BME280;14791;52.392;13.092;2023-03-25T07:31:40;99843.48;;;15.26;49.83
27304;BME280;14791;52.392;13.092;2023-03-25T07:34:08;99833.66;;;15.35;49.67
27304;BME280;14791;52.392;13.092;2023-03-25T07:36:37;99841.72;;;15.44;49.58
27304;BME280;14791;52.392;13.092;2023-03-25T07:39:06;99847.20;;;15.52;49.36
27304;BME280;14791;52.392;13.092;2023-03-25T07:41:35;99839.22;;;15.61;49.07
27304;BME280;14791;52.392;13.092;2023-03-25T07:44:06;99849.74;;;15.68;48.88
27304;BME280;14791;52.392;13.092;2023-03-25T07:46:36;99844.82;;;15.73;48.72
27304;BME280;14791;52.392;13.092;2023-03-25T07:49:05;99848.37;;;15.78;48.61
27304;BME280;14791;52.392;13.092;2023-03-25T07:51:34;99840.36;;;15.82;48.53
27304;BME280;14791;52.392;13.092;2023-03-25T07:54:03;99840.25;;;15.87;48.46
27304;BME280;14791;52.392;13.092;2023-03-25T07:56:32;99839.66;;;15.93;48.31
27304;BME280;14791;52.392;13.092;2023-03-25T07:59:02;99843.44;;;16.01;48.00
27304;BME280;14791;52.392;13.092;2023-03-25T08:01:31;99846.52;;;16.06;48.13
27304;BME280;14791;52.392;13.092;2023-03-25T08:04:02;99845.95;;;16.16;47.95
27304;BME280;14791;52.392;13.092;2023-03-25T08:06:30;99846.56;;;16.24;47.91
27304;BME280;14791;52.392;13.092;2023-03-25T08:08:59;99844.45;;;16.31;47.80
27304;BME280;14791;52.392;13.092;2023-03-25T08:11:28;99848.41;;;16.41;47.43
27304;BME280;14791;52.392;13.092;2023-03-25T08:13:57;99849.48;;;16.48;47.04
27304;BME280;14791;52.392;13.092;2023-03-25T08:16:26;99839.23;;;16.52;46.89
27304;BME280;14791;52.392;13.092;2023-03-25T08:18:55;99846.02;;;16.56;46.93
27304;BME280;14791;52.392;13.092;2023-03-25T08:21:24;99855.49;;;16.60;46.74
27304;BME280;14791;52.392;13.092;2023-03-25T08:23:54;99843.23;;;16.66;46.65
27304;BME280;14791;52.392;13.092;2023-03-25T08:26:28;99849.17;;;16.69;46.55
27304;BME280;14791;52.392;13.092;2023-03-25T08:28:57;99857.64;;;16.74;46.47
27304;BME280;14791;52.392;13.092;2023-03-25T08:31:30;99855.69;;;16.80;46.41
27304;BME280;14791;52.392;13.092;2023-03-25T08:34:00;99859.77;;;16.85;46.28
27304;BME280;14791;52.392;13.092;2023-03-25T08:36:29;99854.94;;;16.92;46.02
27304;BME280;14791;52.392;13.092;2023-03-25T08:38:58;99854.47;;;16.97;45.82
27304;BME280;14791;52.392;13.092;2023-03-25T08:41:29;99851.81;;;17.01;45.74
27304;BME280;14791;52.392;13.092;2023-03-25T08:43:58;99857.72;;;17.05;45.67
27304;BME280;14791;52.392;13.092;2023-03-25T08:46:27;99851.85;;;17.09;45.67
27304;BME280;14791;52.392;13.092;2023-03-25T08:48:56;99856.12;;;17.16;45.33
27304;BME280;14791;52.392;13.092;2023-03-25T08:51:24;99848.25;;;17.22;45.31
27304;BME280;14791;52.392;13.092;2023-03-25T08:53:53;99849.95;;;17.28;45.26
27304;BME280;14791;52.392;13.092;2023-03-25T08:56:22;99851.67;;;17.33;45.05
27304;BME280;14791;52.392;13.092;2023-03-25T08:58:51;99851.70;;;17.37;44.99
27304;BME280;14791;52.392;13.092;2023-03-25T09:01:20;99850.06;;;17.44;44.81
27304;BME280;14791;52.392;13.092;2023-03-25T09:03:50;99854.61;;;17.48;44.67
27304;BME280;14791;52.392;13.092;2023-03-25T09:06:19;99869.64;;;17.50;44.52
27304;BME280;14791;52.392;13.092;2023-03-25T09:08:48;99859.20;;;17.51;44.37
27304;BME280;14791;52.392;13.092;2023-03-25T09:11:19;99864.78;;;17.54;44.28
27304;BME280;14791;52.392;13.092;2023-03-25T09:13:47;99860.41;;;17.53;43.80
27304;BME280;14791;52.392;13.092;2023-03-25T09:16:16;99872.34;;;17.50;43.59
27304;BME280;14791;52.392;13.092;2023-03-25T09:18:45;99873.03;;;17.48;43.17
27304;BME280;14791;52.392;13.092;2023-03-25T09:21:14;99865.23;;;17.41;42.97
27304;BME280;14791;52.392;13.092;2023-03-25T09:23:43;99864.87;;;17.36;43.01
27304;BME280;14791;52.392;13.092;2023-03-25T09:26:12;99863.13;;;17.31;43.19
27304;BME280;14791;52.392;13.092;2023-03-25T09:28:41;99865.49;;;17.30;43.35
27304;BME280;14791;52.392;13.092;2023-03-25T09:31:10;99868.05;;;17.31;43.58
27304;BME280;14791;52.392;13.092;2023-03-25T09:33:39;99859.11;;;17.35;43.68
27304;BME280;14791;52.392;13.092;2023-03-25T09:36:08;99860.02;;;17.43;43.83
27304;BME280;14791;52.392;13.092;2023-03-25T09:38:38;99860.08;;;17.56;43.58
27304;BME280;14791;52.392;13.092;2023-03-25T09:41:22;99866.05;;;17.68;43.17
27304;BME280;14791;52.392;13.092;2023-03-25T09:46:32;99867.83;;;17.85;43.09
27304;BME280;14791;52.392;13.092;2023-03-25T09:49:03;99866.17;;;17.92;42.84
27304;BME280;14791;52.392;13.092;2023-03-25T09:51:35;99878.70;;;18.01;42.31
27304;BME280;14791;52.392;13.092;2023-03-25T09:54:26;99862.00;;;18.06;42.09
27304;BME280;14791;52.392;13.092;2023-03-25T09:56:58;99866.23;;;18.09;41.72
27304;BME280;14791;52.392;13.092;2023-03-25T09:59:48;99871.97;;;18.05;41.85
27304;BME280;14791;52.392;13.092;2023-03-25T10:13:00;99867.21;;;17.99;41.90
27304;BME280;14791;52.392;13.092;2023-03-25T10:21:46;99866.86;;;17.94;42.07
27304;BME280;14791;52.392;13.092;2023-03-25T10:24:27;99863.13;;;17.95;42.05
27304;BME280;14791;52.392;13.092;2023-03-25T10:27:07;99864.48;;;17.95;41.64
27304;BME280;14791;52.392;13.092;2023-03-25T10:29:46;99866.52;;;17.97;41.25
27304;BME280;14791;52.392;13.092;2023-03-25T10:32:38;99870.40;;;17.95;41.38
27304;BME280;14791;52.392;13.092;2023-03-25T10:35:03;99854.02;;;17.92;41.38
27304;BME280;14791;52.392;13.092;2023-03-25T10:37:35;99860.25;;;17.93;41.32
27304;BME280;14791;52.392;13.092;2023-03-25T10:40:15;99847.61;;;17.97;41.32
27304;BME280;14791;52.392;13.092;2023-03-25T10:43:06;99845.26;;;18.02;41.43
27304;BME280;14791;52.392;13.092;2023-03-25T10:45:33;99844.62;;;18.09;41.46
27304;BME280;14791;52.392;13.092;2023-03-25T10:50:41;99840.91;;;18.22;40.83
27304;BME280;14791;52.392;13.092;2023-03-25T10:53:22;99846.02;;;18.25;41.11
27304;BME280;14791;52.392;13.092;2023-03-25T10:56:04;99850.73;;;18.31;40.85
27304;BME280;14791;52.392;13.092;2023-03-25T10:58:23;99846.85;;;18.34;41.03
27304;BME280;14791;52.392;13.092;2023-03-25T11:00:53;99846.03;;;18.37;41.00
27304;BME280;14791;52.392;13.092;2023-03-25T11:03:29;99844.34;;;18.44;40.78
27304;BME280;14791;52.392;13.092;2023-03-25T11:05:57;99838.94;;;18.53;40.21
27304;BME280;14791;52.392;13.092;2023-03-25T11:08:26;99845.71;;;18.57;40.41
27304;BME280;14791;52.392;13.092;2023-03-25T11:10:55;99837.25;;;18.60;40.57
27304;BME280;14791;52.392;13.092;2023-03-25T11:13:26;99832.86;;;18.67;40.45
27304;BME280;14791;52.392;13.092;2023-03-25T11:15:58;99842.66;;;18.72;40.43
27304;BME280;14791;52.392;13.092;2023-03-25T11:18:37;99836.25;;;18.73;40.14
27304;BME280;14791;52.392;13.092;2023-03-25T11:21:11;99834.56;;;18.68;39.91
27304;BME280;14791;52.392;13.092;2023-03-25T11:23:48;99826.13;;;18.63;39.91
27304;BME280;14791;52.392;13.092;2023-03-25T11:26:24;99831.00;;;18.55;40.23
27304;BME280;14791;52.392;13.092;2023-03-25T11:29:01;99834.53;;;18.43;41.30
27304;BME280;14791;52.392;13.092;2023-03-25T11:31:33;99818.98;;;18.25;41.65
27304;BME280;14791;52.392;13.092;2023-03-25T11:41:51;99818.61;;;17.69;41.89
27304;BME280;14791;52.392;13.092;2023-03-25T11:44:31;99813.36;;;17.63;41.59
27304;BME280;14791;52.392;13.092;2023-03-25T11:47:06;99813.34;;;17.59;41.82
27304;BME280;14791;52.392;13.092;2023-03-25T11:49:38;99804.91;;;17.58;41.54
27304;BME280;14791;52.392;13.092;2023-03-25T11:52:21;99811.30;;;17.57;41.51
27304;BME280;14791;52.392;13.092;2023-03-25T11:54:40;99802.89;;;17.60;41.13
27304;BME280;14791;52.392;13.092;2023-03-25T11:57:18;99800.88;;;17.62;41.29
27304;BME280;14791;52.392;13.092;2023-03-25T11:59:49;99800.22;;;17.69;41.18
27304;BME280;14791;52.392;13.092;2023-03-25T12:02:23;99790.45;;;17.76;41.36
27304;BME280;14791;52.392;13.092;2023-03-25T12:07:52;99797.13;;;17.98;41.43
27304;BME280;14791;52.392;13.092;2023-03-25T12:13:06;99800.55;;;18.16;40.91
27304;BME280;14791;52.392;13.092;2023-03-25T12:21:33;99795.83;;;18.18;40.95
27304;BME280;14791;52.392;13.092;2023-03-25T12:38:40;99764.59;;;18.81;41.62
27304;BME280;14791;52.392;13.092;2023-03-25T12:41:19;99759.66;;;19.01;40.92
27304;BME280;14791;52.392;13.092;2023-03-25T12:43:55;99756.41;;;19.14;40.05
27304;BME280;14791;52.392;13.092;2023-03-25T12:52:11;99765.52;;;19.21;39.82
27304;BME280;14791;52.392;13.092;2023-03-25T12:55:28;99753.02;;;19.12;39.49
27304;BME280;14791;52.392;13.092;2023-03-25T13:00:05;99771.50;;;18.76;40.68
27304;BME280;14791;52.392;13.092;2023-03-25T13:08:25;99751.48;;;17.74;42.74
27304;BME280;14791;52.392;13.092;2023-03-25T13:11:04;99773.13;;;17.44;42.97
27304;BME280;14791;52.392;13.092;2023-03-25T13:13:33;99805.69;;;17.12;43.13
27304;BME280;14791;52.392;13.092;2023-03-25T13:18:44;99780.11;;;16.50;46.16
27304;BME280;14791;52.392;13.092;2023-03-25T13:21:19;99774.47;;;16.22;46.78
27304;BME280;14791;52.392;13.092;2023-03-25T13:23:57;99775.03;;;15.93;46.94
27304;BME280;14791;52.392;13.092;2023-03-25T13:26:24;99785.14;;;15.68;47.19
27304;BME280;14791;52.392;13.092;2023-03-25T13:29:04;99786.25;;;15.47;47.43
27304;BME280;14791;52.392;13.092;2023-03-25T13:31:35;99784.70;;;15.31;47.49
27304;BME280;14791;52.392;13.092;2023-03-25T13:34:16;99806.12;;;15.13;47.55
27304;BME280;14791;52.392;13.092;2023-03-25T13:36:49;99798.83;;;14.96;47.85
27304;BME280;14791;52.392;13.092;2023-03-25T13:39:29;99800.92;;;14.78;48.31
27304;BME280;14791;52.392;13.092;2023-03-25T13:42:09;99795.77;;;14.71;48.70
27304;BME280;14791;52.392;13.092;2023-03-25T13:44:38;99789.19;;;14.70;49.18
27304;BME280;14791;52.392;13.092;2023-03-25T13:50:02;99791.61;;;14.73;49.64
27304;BME280;14791;52.392;13.092;2023-03-25T13:52:35;99788.95;;;14.77;49.77
27304;BME280;14791;52.392;13.092;2023-03-25T13:55:12;99792.42;;;14.83;49.60
27304;BME280;14791;52.392;13.092;2023-03-25T13:57:53;99792.20;;;14.90;49.56
27304;BME280;14791;52.392;13.092;2023-03-25T14:06:05;99789.75;;;15.06;49.21
27304;BME280;14791;52.392;13.092;2023-03-25T14:09:02;99793.55;;;15.14;49.24
27304;BME280;14791;52.392;13.092;2023-03-25T14:11:33;99783.90;;;15.21;49.31
27304;BME280;14791;52.392;13.092;2023-03-25T14:14:15;99786.68;;;15.29;49.23
27304;BME280;14791;52.392;13.092;2023-03-25T14:16:42;99792.98;;;15.47;49.51
27304;BME280;14791;52.392;13.092;2023-03-25T14:19:14;99781.09;;;15.68;49.74
27304;BME280;14791;52.392;13.092;2023-03-25T14:21:47;99779.12;;;15.98;50.09
27304;BME280;14791;52.392;13.092;2023-03-25T14:24:28;99779.50;;;16.38;50.42
27304;BME280;14791;52.392;13.092;2023-03-25T14:27:12;99775.84;;;16.84;50.48
27304;BME280;14791;52.392;13.092;2023-03-25T14:34:50;99765.06;;;18.07;48.72
27304;BME280;14791;52.392;13.092;2023-03-25T14:37:25;99769.66;;;18.35;47.92
27304;BME280;14791;52.392;13.092;2023-03-25T14:39:58;99759.02;;;18.58;47.25
27304;BME280;14791;52.392;13.092;2023-03-25T14:42:39;99762.71;;;18.74;46.46
27304;BME280;14791;52.392;13.092;2023-03-25T14:45:36;99763.23;;;18.81;45.78
27304;BME280;14791;52.392;13.092;2023-03-25T14:48:05;99757.14;;;18.83;45.00
27304;BME280;14791;52.392;13.092;2023-03-25T14:50:36;99756.83;;;18.78;45.39
27304;BME280;14791;52.392;13.092;2023-03-25T14:53:09;99749.03;;;18.87;45.67
27304;BME280;14791;52.392;13.092;2023-03-25T14:55:44;99751.70;;;19.00;45.49
27304;BME280;14791;52.392;13.092;2023-03-25T14:58:26;99743.07;;;19.08;45.16
27304;BME280;14791;52.392;13.092;2023-03-25T15:00:58;99745.58;;;19.14;44.70
27304;BME280;14791;52.392;13.092;2023-03-25T15:03:35;99751.16;;;19.17;44.59
27304;BME280;14791;52.392;13.092;2023-03-25T15:06:07;99742.67;;;19.24;44.78
27304;BME280;14791;52.392;13.092;2023-03-25T15:08:52;99738.04;;;19.37;44.83